NOS7644 LIRF-HEMA
Flight info
| Callsign | NOS7644 |
|---|---|
| Flight time | 3h 29m |
| Altitude | 35000 |
| Route | PEPIX L50 UNIXO DCT ADMAS DCT BELIX DCT SALUN N705 BOPIX N710 TAKRI P751 LXR M999 ELELI V730 MAK |
| Aircraft | B38M/M-SDE1FGHILORVWXY/HB1 |
Departure
| Time | 2026-05-06 09:04 |
|---|---|
| Airport | Rome–Fiumicino Leonardo da Vinci International Airport (LIRF) |
Arrival
| Time | 2026-05-06 12:33 |
|---|---|
| Airport | Marsa Alam International Airport (HEMA) |
| Time | Latitude | Longitude | Altitude | Speed | Heading |
|---|---|---|---|---|---|
| 2026-05-06 08:18 | 41.79671 | 12.25813 | 14 ft | 0 kts | 115° |
| 2026-05-06 08:51 | 41.79677 | 12.25794 | 15 ft | 4 kts | 113° |
| 2026-05-06 08:51 | 41.79684 | 12.25768 | 15 ft | 2 kts | 93° |
| 2026-05-06 08:51 | 41.79682 | 12.25753 | 17 ft | 2 kts | 49° |
| 2026-05-06 08:52 | 41.79674 | 12.25743 | 15 ft | 2 kts | 30° |
| 2026-05-06 08:52 | 41.79664 | 12.25736 | 16 ft | 2 kts | 25° |
| 2026-05-06 08:52 | 41.79661 | 12.25734 | 15 ft | 0 kts | 25° |
| 2026-05-06 08:54 | 41.79681 | 12.25747 | 14 ft | 6 kts | 25° |
| 2026-05-06 08:55 | 41.79739 | 12.25784 | 13 ft | 11 kts | 26° |
| 2026-05-06 08:55 | 41.79801 | 12.25823 | 15 ft | 9 kts | 25° |
| 2026-05-06 08:55 | 41.79854 | 12.25825 | 14 ft | 8 kts | 353° |
| 2026-05-06 08:55 | 41.79904 | 12.25844 | 13 ft | 8 kts | 24° |
| 2026-05-06 08:56 | 41.79951 | 12.25872 | 14 ft | 7 kts | 25° |
| 2026-05-06 08:56 | 41.79996 | 12.25900 | 14 ft | 7 kts | 25° |
| 2026-05-06 08:56 | 41.80040 | 12.25928 | 14 ft | 7 kts | 25° |
| 2026-05-06 08:56 | 41.80083 | 12.25954 | 14 ft | 7 kts | 24° |
| 2026-05-06 08:57 | 41.80126 | 12.25980 | 13 ft | 7 kts | 24° |
| 2026-05-06 08:57 | 41.80167 | 12.26005 | 14 ft | 6 kts | 25° |
| 2026-05-06 08:57 | 41.80208 | 12.26031 | 15 ft | 6 kts | 25° |
| 2026-05-06 08:57 | 41.80251 | 12.26057 | 13 ft | 8 kts | 25° |
| 2026-05-06 08:58 | 41.80319 | 12.26099 | 13 ft | 12 kts | 25° |
| 2026-05-06 08:58 | 41.80397 | 12.26148 | 14 ft | 12 kts | 25° |
| 2026-05-06 08:58 | 41.80478 | 12.26178 | 15 ft | 12 kts | 7° |
| 2026-05-06 08:58 | 41.80531 | 12.26253 | 15 ft | 12 kts | 68° |
| 2026-05-06 08:59 | 41.80559 | 12.26354 | 15 ft | 11 kts | 70° |
| 2026-05-06 08:59 | 41.80586 | 12.26452 | 15 ft | 11 kts | 69° |
| 2026-05-06 08:59 | 41.80612 | 12.26547 | 15 ft | 11 kts | 70° |
| 2026-05-06 08:59 | 41.80638 | 12.26639 | 16 ft | 10 kts | 70° |
| 2026-05-06 09:00 | 41.80662 | 12.26729 | 15 ft | 10 kts | 69° |
| 2026-05-06 09:00 | 41.80687 | 12.26815 | 13 ft | 10 kts | 69° |
| 2026-05-06 09:00 | 41.80710 | 12.26900 | 14 ft | 10 kts | 70° |
| 2026-05-06 09:00 | 41.80733 | 12.26983 | 12 ft | 9 kts | 68° |
| 2026-05-06 09:01 | 41.80777 | 12.27040 | 12 ft | 9 kts | 15° |
| 2026-05-06 09:01 | 41.80838 | 12.27027 | 14 ft | 9 kts | 340° |
| 2026-05-06 09:01 | 41.80863 | 12.27014 | 12 ft | 0 kts | 340° |
| 2026-05-06 09:02 | 41.80864 | 12.27014 | 12 ft | 1 kts | 340° |
| 2026-05-06 09:02 | 41.80897 | 12.26998 | 13 ft | 9 kts | 340° |
| 2026-05-06 09:02 | 41.80950 | 12.26950 | 11 ft | 10 kts | 295° |
| 2026-05-06 09:03 | 41.80942 | 12.26867 | 13 ft | 2 kts | 250° |
| 2026-05-06 09:03 | 41.80905 | 12.26733 | 14 ft | 46 kts | 249° |
| 2026-05-06 09:04 | 41.80710 | 12.26030 | 17 ft | 114 kts | 249° |
| 2026-05-06 09:04 | 41.80356 | 12.24776 | 27 ft | 169 kts | 246° |
| 2026-05-06 09:04 | 41.80030 | 12.23239 | 620 ft | 173 kts | 250° |
| 2026-05-06 09:04 | 41.79648 | 12.21658 | 1268 ft | 177 kts | 243° |
| 2026-05-06 09:05 | 41.79036 | 12.20261 | 2026 ft | 175 kts | 221° |
| 2026-05-06 09:05 | 41.78053 | 12.19217 | 2481 ft | 183 kts | 211° |
| 2026-05-06 09:05 | 41.76998 | 12.18234 | 2969 ft | 186 kts | 214° |
| 2026-05-06 09:05 | 41.75958 | 12.17205 | 3490 ft | 186 kts | 210° |
| 2026-05-06 09:06 | 41.74693 | 12.16700 | 3735 ft | 201 kts | 182° |
| 2026-05-06 09:06 | 41.73239 | 12.16827 | 3937 ft | 218 kts | 178° |
| 2026-05-06 09:06 | 41.71684 | 12.16940 | 4260 ft | 228 kts | 180° |
| 2026-05-06 09:06 | 41.70062 | 12.17022 | 4546 ft | 243 kts | 181° |
| 2026-05-06 09:07 | 41.68314 | 12.17101 | 4966 ft | 256 kts | 181° |
| 2026-05-06 09:07 | 41.66497 | 12.17185 | 5490 ft | 264 kts | 181° |
| 2026-05-06 09:07 | 41.64659 | 12.17274 | 6231 ft | 265 kts | 181° |
| 2026-05-06 09:07 | 41.62807 | 12.17362 | 6908 ft | 267 kts | 182° |
| 2026-05-06 09:08 | 41.60943 | 12.17450 | 7578 ft | 270 kts | 182° |
| 2026-05-06 09:08 | 41.59055 | 12.17539 | 8201 ft | 273 kts | 182° |
| 2026-05-06 09:08 | 41.57145 | 12.17628 | 8841 ft | 276 kts | 183° |
| 2026-05-06 09:08 | 41.55221 | 12.17648 | 9466 ft | 276 kts | 191° |
| 2026-05-06 09:09 | 41.53323 | 12.17237 | 10051 ft | 278 kts | 196° |
| 2026-05-06 09:09 | 41.51386 | 12.16708 | 10333 ft | 294 kts | 196° |
| 2026-05-06 09:09 | 41.49314 | 12.16153 | 10486 ft | 313 kts | 195° |
| 2026-05-06 09:09 | 41.47114 | 12.15583 | 10626 ft | 332 kts | 194° |
| 2026-05-06 09:10 | 41.44781 | 12.15002 | 10780 ft | 349 kts | 194° |
| 2026-05-06 09:10 | 41.42357 | 12.14411 | 11147 ft | 358 kts | 194° |
| 2026-05-06 09:10 | 41.39893 | 12.13815 | 11666 ft | 361 kts | 194° |
| 2026-05-06 09:10 | 41.37408 | 12.13212 | 12244 ft | 364 kts | 194° |
| 2026-05-06 09:11 | 41.34936 | 12.12611 | 12802 ft | 368 kts | 194° |
| 2026-05-06 09:11 | 41.32379 | 12.12175 | 13328 ft | 376 kts | 182° |
| 2026-05-06 09:11 | 41.29784 | 12.12840 | 13906 ft | 386 kts | 166° |
| 2026-05-06 09:11 | 41.27233 | 12.13977 | 14481 ft | 388 kts | 165° |
| 2026-05-06 09:12 | 41.24671 | 12.15140 | 15049 ft | 390 kts | 165° |
| 2026-05-06 09:12 | 41.22088 | 12.16283 | 15644 ft | 392 kts | 165° |
| 2026-05-06 09:12 | 41.19488 | 12.17408 | 16209 ft | 394 kts | 165° |
| 2026-05-06 09:12 | 41.16877 | 12.18578 | 16750 ft | 399 kts | 160° |
| 2026-05-06 09:13 | 41.14520 | 12.20590 | 17255 ft | 411 kts | 140° |
| 2026-05-06 09:13 | 41.12482 | 12.23258 | 17866 ft | 412 kts | 138° |
| 2026-05-06 09:13 | 41.10438 | 12.25955 | 18325 ft | 417 kts | 138° |
| 2026-05-06 09:13 | 41.08365 | 12.28675 | 18727 ft | 421 kts | 139° |
| 2026-05-06 09:14 | 41.06274 | 12.31397 | 19181 ft | 423 kts | 139° |
| 2026-05-06 09:14 | 41.04157 | 12.34135 | 19652 ft | 425 kts | 139° |
| 2026-05-06 09:14 | 41.02033 | 12.36870 | 20091 ft | 428 kts | 140° |
| 2026-05-06 09:14 | 40.99887 | 12.39625 | 20518 ft | 431 kts | 140° |
| 2026-05-06 09:15 | 40.97725 | 12.42395 | 20936 ft | 434 kts | 140° |
| 2026-05-06 09:15 | 40.95550 | 12.45179 | 21354 ft | 436 kts | 140° |
| 2026-05-06 09:15 | 40.93361 | 12.47979 | 21750 ft | 439 kts | 140° |
| 2026-05-06 09:15 | 40.91157 | 12.50796 | 22139 ft | 442 kts | 140° |
| 2026-05-06 09:16 | 40.88939 | 12.53628 | 22538 ft | 445 kts | 140° |
| 2026-05-06 09:16 | 40.86707 | 12.56476 | 22903 ft | 447 kts | 140° |
| 2026-05-06 09:16 | 40.84463 | 12.59337 | 23230 ft | 451 kts | 140° |
| 2026-05-06 09:16 | 40.82197 | 12.62224 | 23584 ft | 454 kts | 141° |
| 2026-05-06 09:17 | 40.79917 | 12.65125 | 23908 ft | 456 kts | 141° |
| 2026-05-06 09:17 | 40.77638 | 12.68050 | 24226 ft | 459 kts | 139° |
| 2026-05-06 09:17 | 40.75545 | 12.71266 | 24519 ft | 465 kts | 132° |
| 2026-05-06 09:17 | 40.73609 | 12.74626 | 24834 ft | 468 kts | 131° |
| 2026-05-06 09:18 | 40.71673 | 12.78084 | 25118 ft | 470 kts | 130° |
| 2026-05-06 09:18 | 40.69742 | 12.81552 | 25445 ft | 471 kts | 130° |
| 2026-05-06 09:18 | 40.67769 | 12.85076 | 25748 ft | 472 kts | 131° |
| 2026-05-06 09:18 | 40.65830 | 12.88507 | 26040 ft | 474 kts | 131° |
| 2026-05-06 09:19 | 40.63847 | 12.91987 | 26312 ft | 476 kts | 131° |
| 2026-05-06 09:19 | 40.61848 | 12.95471 | 26575 ft | 478 kts | 131° |
| 2026-05-06 09:19 | 40.59838 | 12.98961 | 26841 ft | 479 kts | 131° |
| 2026-05-06 09:19 | 40.57818 | 13.02459 | 27110 ft | 481 kts | 131° |
| 2026-05-06 09:20 | 40.55789 | 13.05966 | 27365 ft | 483 kts | 131° |
| 2026-05-06 09:20 | 40.53752 | 13.09484 | 27621 ft | 484 kts | 131° |
| 2026-05-06 09:20 | 40.51712 | 13.13005 | 27867 ft | 486 kts | 131° |
| 2026-05-06 09:20 | 40.49663 | 13.16538 | 28184 ft | 485 kts | 131° |
| 2026-05-06 09:21 | 40.47621 | 13.20058 | 28572 ft | 483 kts | 131° |
| 2026-05-06 09:21 | 40.45586 | 13.23563 | 28957 ft | 482 kts | 132° |
| 2026-05-06 09:21 | 40.43553 | 13.27058 | 29305 ft | 481 kts | 132° |
| 2026-05-06 09:21 | 40.41521 | 13.30548 | 29640 ft | 481 kts | 132° |
| 2026-05-06 09:22 | 40.39492 | 13.34028 | 29998 ft | 480 kts | 132° |
| 2026-05-06 09:22 | 40.37467 | 13.37498 | 30325 ft | 478 kts | 132° |
| 2026-05-06 09:22 | 40.35445 | 13.40958 | 30616 ft | 477 kts | 132° |
| 2026-05-06 09:22 | 40.33425 | 13.44410 | 30871 ft | 477 kts | 132° |
| 2026-05-06 09:23 | 40.31411 | 13.47849 | 31141 ft | 476 kts | 132° |
| 2026-05-06 09:23 | 40.29395 | 13.51287 | 31436 ft | 475 kts | 132° |
| 2026-05-06 09:23 | 40.27391 | 13.54703 | 31813 ft | 471 kts | 132° |
| 2026-05-06 09:23 | 40.25395 | 13.58102 | 32111 ft | 470 kts | 132° |
| 2026-05-06 09:24 | 40.23396 | 13.61498 | 32302 ft | 471 kts | 132° |
| 2026-05-06 09:24 | 40.21393 | 13.64898 | 32514 ft | 472 kts | 132° |
| 2026-05-06 09:24 | 40.19391 | 13.68293 | 32785 ft | 471 kts | 132° |
| 2026-05-06 09:24 | 40.17394 | 13.71678 | 33061 ft | 469 kts | 132° |
| 2026-05-06 09:25 | 40.15400 | 13.75053 | 33320 ft | 469 kts | 132° |
| 2026-05-06 09:25 | 40.13406 | 13.78425 | 33544 ft | 469 kts | 132° |
| 2026-05-06 09:25 | 40.11416 | 13.81785 | 33780 ft | 468 kts | 132° |
| 2026-05-06 09:25 | 40.09423 | 13.85147 | 34024 ft | 468 kts | 132° |
| 2026-05-06 09:26 | 40.07430 | 13.88506 | 34163 ft | 469 kts | 132° |
| 2026-05-06 09:26 | 40.03415 | 13.95259 | 34401 ft | 471 kts | 131° |
| 2026-05-06 09:26 | 40.01410 | 13.98628 | 34663 ft | 469 kts | 131° |
| 2026-05-06 09:27 | 39.99414 | 14.01979 | 34925 ft | 467 kts | 131° |
| 2026-05-06 09:27 | 39.97422 | 14.05320 | 35033 ft | 468 kts | 131° |
| 2026-05-06 09:27 | 39.95417 | 14.08676 | 35035 ft | 470 kts | 131° |
| 2026-05-06 09:28 | 39.91404 | 14.15385 | 35036 ft | 468 kts | 132° |
| 2026-05-06 09:28 | 39.87417 | 14.22038 | 35029 ft | 465 kts | 131° |
| 2026-05-06 09:29 | 39.83471 | 14.28608 | 35039 ft | 462 kts | 131° |
| 2026-05-06 09:29 | 39.79511 | 14.35188 | 35035 ft | 461 kts | 132° |
| 2026-05-06 09:30 | 39.75556 | 14.41744 | 35037 ft | 461 kts | 132° |
| 2026-05-06 09:30 | 39.71600 | 14.48288 | 35049 ft | 461 kts | 132° |
| 2026-05-06 09:31 | 39.67626 | 14.54847 | 35040 ft | 463 kts | 132° |
| 2026-05-06 09:31 | 39.63635 | 14.61422 | 35053 ft | 464 kts | 132° |
| 2026-05-06 09:32 | 39.59626 | 14.68013 | 35049 ft | 466 kts | 132° |
| 2026-05-06 09:32 | 39.55598 | 14.74622 | 35051 ft | 468 kts | 132° |
| 2026-05-06 09:33 | 39.51553 | 14.81245 | 35046 ft | 469 kts | 131° |
| 2026-05-06 09:33 | 39.47506 | 14.87858 | 35048 ft | 469 kts | 132° |
| 2026-05-06 09:34 | 39.43451 | 14.94469 | 35045 ft | 468 kts | 131° |
| 2026-05-06 09:34 | 39.39408 | 15.01050 | 35037 ft | 466 kts | 131° |
| 2026-05-06 09:35 | 39.35377 | 15.07595 | 35048 ft | 464 kts | 132° |
| 2026-05-06 09:35 | 39.31360 | 15.14105 | 35045 ft | 462 kts | 132° |
| 2026-05-06 09:36 | 39.27360 | 15.20573 | 35044 ft | 460 kts | 132° |
| 2026-05-06 09:36 | 39.23392 | 15.26975 | 35050 ft | 459 kts | 132° |
| 2026-05-06 09:37 | 39.19407 | 15.33394 | 35054 ft | 458 kts | 132° |
| 2026-05-06 09:37 | 39.15424 | 15.39796 | 35074 ft | 458 kts | 132° |
| 2026-05-06 09:38 | 39.11438 | 15.46188 | 35073 ft | 458 kts | 132° |
| 2026-05-06 09:38 | 39.07438 | 15.52590 | 35086 ft | 459 kts | 132° |
| 2026-05-06 09:39 | 39.03427 | 15.58999 | 35082 ft | 460 kts | 132° |
| 2026-05-06 09:39 | 38.99401 | 15.65418 | 35075 ft | 462 kts | 132° |
| 2026-05-06 09:40 | 38.95366 | 15.71838 | 35068 ft | 463 kts | 132° |
| 2026-05-06 09:40 | 38.89281 | 15.81497 | 35093 ft | 465 kts | 132° |
| 2026-05-06 09:41 | 38.85206 | 15.87948 | 35092 ft | 466 kts | 132° |
| 2026-05-06 09:41 | 38.81115 | 15.94412 | 35073 ft | 467 kts | 132° |
| 2026-05-06 09:42 | 38.77014 | 16.00879 | 35059 ft | 468 kts | 132° |
| 2026-05-06 09:42 | 38.72908 | 16.07341 | 35068 ft | 467 kts | 132° |
| 2026-05-06 09:43 | 38.68799 | 16.13795 | 35072 ft | 467 kts | 132° |
| 2026-05-06 09:43 | 38.64688 | 16.20238 | 35090 ft | 467 kts | 133° |
| 2026-05-06 09:44 | 38.60577 | 16.26669 | 35084 ft | 467 kts | 133° |
| 2026-05-06 09:44 | 38.56492 | 16.33045 | 35088 ft | 466 kts | 133° |
| 2026-05-06 09:45 | 38.52381 | 16.39450 | 35091 ft | 466 kts | 132° |
| 2026-05-06 09:45 | 38.48277 | 16.45833 | 35106 ft | 464 kts | 132° |
| 2026-05-06 09:46 | 38.44181 | 16.52188 | 35099 ft | 463 kts | 132° |
| 2026-05-06 09:46 | 38.40086 | 16.58531 | 35104 ft | 463 kts | 132° |
| 2026-05-06 09:47 | 38.35992 | 16.64858 | 35108 ft | 462 kts | 132° |
| 2026-05-06 09:47 | 38.31899 | 16.71173 | 35084 ft | 462 kts | 132° |
| 2026-05-06 09:48 | 38.27807 | 16.77474 | 35107 ft | 461 kts | 132° |
| 2026-05-06 09:48 | 38.23719 | 16.83755 | 35102 ft | 461 kts | 132° |
| 2026-05-06 09:49 | 38.19625 | 16.90035 | 35102 ft | 461 kts | 132° |
| 2026-05-06 09:49 | 38.15528 | 16.96306 | 35103 ft | 461 kts | 132° |
| 2026-05-06 09:50 | 38.11427 | 17.02571 | 35102 ft | 461 kts | 132° |
| 2026-05-06 09:50 | 38.07322 | 17.08830 | 35094 ft | 461 kts | 132° |
| 2026-05-06 09:51 | 38.03218 | 17.15077 | 35104 ft | 461 kts | 132° |
| 2026-05-06 09:51 | 37.99105 | 17.21324 | 35107 ft | 461 kts | 132° |
| 2026-05-06 09:52 | 37.95013 | 17.27527 | 35104 ft | 462 kts | 132° |
| 2026-05-06 09:52 | 37.90894 | 17.33761 | 35108 ft | 462 kts | 132° |
| 2026-05-06 09:53 | 37.86764 | 17.39998 | 35108 ft | 462 kts | 133° |
| 2026-05-06 09:53 | 37.82628 | 17.46232 | 35111 ft | 462 kts | 133° |
| 2026-05-06 09:54 | 37.79161 | 17.51449 | 35105 ft | 463 kts | 133° |
| 2026-05-06 09:54 | 37.75043 | 17.57636 | 35114 ft | 463 kts | 133° |
| 2026-05-06 09:55 | 37.70893 | 17.63857 | 35112 ft | 463 kts | 133° |
| 2026-05-06 09:55 | 37.66743 | 17.70069 | 35118 ft | 463 kts | 133° |
| 2026-05-06 09:56 | 37.62584 | 17.76283 | 35117 ft | 464 kts | 133° |
| 2026-05-06 09:56 | 37.58419 | 17.82495 | 35117 ft | 464 kts | 133° |
| 2026-05-06 09:57 | 37.54433 | 17.88900 | 35127 ft | 466 kts | 126° |
| 2026-05-06 09:57 | 37.50929 | 17.95782 | 35121 ft | 467 kts | 124° |
| 2026-05-06 09:58 | 37.47471 | 18.02705 | 35122 ft | 467 kts | 125° |
| 2026-05-06 09:58 | 37.43973 | 18.09578 | 35125 ft | 466 kts | 125° |
| 2026-05-06 09:59 | 37.40442 | 18.16426 | 35134 ft | 466 kts | 125° |
| 2026-05-06 09:59 | 37.36903 | 18.23259 | 35131 ft | 466 kts | 125° |
| 2026-05-06 10:00 | 37.33363 | 18.30083 | 35132 ft | 466 kts | 126° |
| 2026-05-06 10:00 | 37.29826 | 18.36889 | 35136 ft | 465 kts | 126° |
| 2026-05-06 10:01 | 37.26284 | 18.43693 | 35133 ft | 465 kts | 125° |
| 2026-05-06 10:01 | 37.22742 | 18.50485 | 35125 ft | 465 kts | 126° |
| 2026-05-06 10:02 | 37.19199 | 18.57263 | 35137 ft | 464 kts | 126° |
| 2026-05-06 10:02 | 37.15658 | 18.64024 | 35129 ft | 463 kts | 125° |
| 2026-05-06 10:03 | 37.12122 | 18.70761 | 35134 ft | 463 kts | 125° |
| 2026-05-06 10:03 | 37.08584 | 18.77491 | 35135 ft | 462 kts | 125° |
| 2026-05-06 10:04 | 37.05043 | 18.84212 | 35136 ft | 462 kts | 125° |
| 2026-05-06 10:04 | 37.01522 | 18.90882 | 35140 ft | 462 kts | 125° |
| 2026-05-06 10:05 | 36.97971 | 18.97598 | 35139 ft | 463 kts | 125° |
| 2026-05-06 10:05 | 36.94455 | 19.04342 | 35142 ft | 464 kts | 124° |
| 2026-05-06 10:06 | 36.91023 | 19.11181 | 35142 ft | 465 kts | 124° |
| 2026-05-06 10:06 | 36.87592 | 19.18037 | 35138 ft | 465 kts | 124° |
| 2026-05-06 10:07 | 36.84143 | 19.24886 | 35144 ft | 466 kts | 124° |
| 2026-05-06 10:07 | 36.80680 | 19.31726 | 35147 ft | 467 kts | 124° |
| 2026-05-06 10:08 | 36.77202 | 19.38577 | 35142 ft | 468 kts | 124° |
| 2026-05-06 10:08 | 36.73715 | 19.45429 | 35142 ft | 468 kts | 124° |
| 2026-05-06 10:09 | 36.70221 | 19.52284 | 35141 ft | 469 kts | 124° |
| 2026-05-06 10:09 | 36.66724 | 19.59131 | 35146 ft | 469 kts | 124° |
| 2026-05-06 10:10 | 36.63215 | 19.65987 | 35145 ft | 470 kts | 124° |
| 2026-05-06 10:10 | 36.59699 | 19.72842 | 35145 ft | 470 kts | 124° |
| 2026-05-06 10:11 | 36.56178 | 19.79695 | 35144 ft | 470 kts | 124° |
| 2026-05-06 10:11 | 36.52651 | 19.86545 | 35144 ft | 470 kts | 124° |
| 2026-05-06 10:12 | 36.49119 | 19.93389 | 35148 ft | 470 kts | 124° |
| 2026-05-06 10:12 | 36.45587 | 20.00222 | 35151 ft | 470 kts | 124° |
| 2026-05-06 10:13 | 36.42047 | 20.07055 | 35146 ft | 470 kts | 124° |
| 2026-05-06 10:13 | 36.38504 | 20.13881 | 35144 ft | 470 kts | 124° |
| 2026-05-06 10:14 | 36.34957 | 20.20701 | 35144 ft | 470 kts | 124° |
| 2026-05-06 10:14 | 36.31429 | 20.27469 | 35149 ft | 470 kts | 124° |
| 2026-05-06 10:15 | 36.27877 | 20.34272 | 35150 ft | 471 kts | 124° |
| 2026-05-06 10:15 | 36.24315 | 20.41079 | 35150 ft | 471 kts | 124° |
| 2026-05-06 10:16 | 36.20747 | 20.47884 | 35153 ft | 471 kts | 124° |
| 2026-05-06 10:16 | 36.17170 | 20.54693 | 35149 ft | 472 kts | 124° |
| 2026-05-06 10:17 | 36.13582 | 20.61508 | 35153 ft | 473 kts | 124° |
| 2026-05-06 10:17 | 36.09988 | 20.68322 | 35154 ft | 474 kts | 124° |
| 2026-05-06 10:18 | 36.06381 | 20.75148 | 35144 ft | 474 kts | 124° |
| 2026-05-06 10:18 | 36.02761 | 20.81984 | 35142 ft | 475 kts | 124° |
| 2026-05-06 10:19 | 35.99141 | 20.88807 | 35146 ft | 475 kts | 124° |
| 2026-05-06 10:19 | 35.95512 | 20.95633 | 35144 ft | 476 kts | 124° |
| 2026-05-06 10:20 | 35.91878 | 21.02456 | 35145 ft | 476 kts | 124° |
| 2026-05-06 10:20 | 35.88243 | 21.09265 | 35144 ft | 476 kts | 124° |
| 2026-05-06 10:21 | 35.84602 | 21.16073 | 35136 ft | 475 kts | 124° |
| 2026-05-06 10:21 | 35.80958 | 21.22874 | 35143 ft | 475 kts | 124° |
| 2026-05-06 10:22 | 35.77333 | 21.29624 | 35138 ft | 475 kts | 124° |
| 2026-05-06 10:22 | 35.73682 | 21.36412 | 35146 ft | 475 kts | 124° |
| 2026-05-06 10:23 | 35.70031 | 21.43185 | 35144 ft | 475 kts | 125° |
| 2026-05-06 10:23 | 35.66373 | 21.49959 | 35144 ft | 475 kts | 125° |
| 2026-05-06 10:24 | 35.62711 | 21.56726 | 35144 ft | 475 kts | 125° |
| 2026-05-06 10:24 | 35.59045 | 21.63486 | 35145 ft | 475 kts | 125° |
| 2026-05-06 10:25 | 35.55377 | 21.70239 | 35142 ft | 475 kts | 125° |
| 2026-05-06 10:25 | 35.51709 | 21.76977 | 35142 ft | 475 kts | 125° |
| 2026-05-06 10:26 | 35.48034 | 21.83718 | 35140 ft | 475 kts | 125° |
| 2026-05-06 10:26 | 35.44353 | 21.90454 | 35145 ft | 475 kts | 125° |
| 2026-05-06 10:27 | 35.40667 | 21.97186 | 35140 ft | 475 kts | 125° |
| 2026-05-06 10:27 | 35.36977 | 22.03913 | 35145 ft | 475 kts | 125° |
| 2026-05-06 10:28 | 35.33287 | 22.10628 | 35144 ft | 476 kts | 125° |
| 2026-05-06 10:28 | 35.29612 | 22.17301 | 35141 ft | 476 kts | 125° |
| 2026-05-06 10:29 | 35.25908 | 22.24016 | 35143 ft | 476 kts | 125° |
| 2026-05-06 10:29 | 35.22197 | 22.30730 | 35142 ft | 476 kts | 125° |
| 2026-05-06 10:30 | 35.18480 | 22.37441 | 35144 ft | 477 kts | 125° |
| 2026-05-06 10:30 | 35.14761 | 22.44144 | 35144 ft | 477 kts | 125° |
| 2026-05-06 10:31 | 35.11031 | 22.50853 | 35143 ft | 478 kts | 125° |
| 2026-05-06 10:31 | 35.07294 | 22.57564 | 35147 ft | 478 kts | 125° |
| 2026-05-06 10:32 | 35.03553 | 22.64267 | 35145 ft | 478 kts | 125° |
| 2026-05-06 10:32 | 34.99805 | 22.70971 | 35144 ft | 478 kts | 125° |
| 2026-05-06 10:33 | 34.96052 | 22.77671 | 35142 ft | 478 kts | 125° |
| 2026-05-06 10:33 | 34.92295 | 22.84365 | 35140 ft | 478 kts | 125° |
| 2026-05-06 10:34 | 34.88535 | 22.91052 | 35142 ft | 478 kts | 125° |
| 2026-05-06 10:34 | 34.84775 | 22.97726 | 35142 ft | 478 kts | 126° |
| 2026-05-06 10:35 | 34.81008 | 23.04401 | 35144 ft | 478 kts | 126° |
| 2026-05-06 10:35 | 34.77237 | 23.11069 | 35148 ft | 478 kts | 126° |
| 2026-05-06 10:36 | 34.73485 | 23.17692 | 35143 ft | 479 kts | 126° |
| 2026-05-06 10:36 | 34.69701 | 23.24357 | 35145 ft | 479 kts | 126° |
| 2026-05-06 10:37 | 34.65915 | 23.31016 | 35143 ft | 479 kts | 126° |
| 2026-05-06 10:37 | 34.62118 | 23.37680 | 35146 ft | 480 kts | 126° |
| 2026-05-06 10:38 | 34.58315 | 23.44344 | 35145 ft | 480 kts | 126° |
| 2026-05-06 10:38 | 34.54502 | 23.51011 | 35146 ft | 481 kts | 126° |
| 2026-05-06 10:39 | 34.50682 | 23.57679 | 35144 ft | 482 kts | 126° |
| 2026-05-06 10:39 | 34.46854 | 23.64348 | 35145 ft | 482 kts | 126° |
| 2026-05-06 10:40 | 34.43023 | 23.71010 | 35144 ft | 482 kts | 126° |
| 2026-05-06 10:40 | 34.39181 | 23.77679 | 35139 ft | 483 kts | 126° |
| 2026-05-06 10:41 | 34.35332 | 23.84347 | 35148 ft | 483 kts | 126° |
| 2026-05-06 10:41 | 34.31478 | 23.91013 | 35139 ft | 483 kts | 126° |
| 2026-05-06 10:42 | 34.27623 | 23.97667 | 35149 ft | 483 kts | 126° |
| 2026-05-06 10:42 | 34.24411 | 24.03201 | 35146 ft | 483 kts | 126° |
| 2026-05-06 10:43 | 34.20545 | 24.09852 | 35139 ft | 483 kts | 126° |
| 2026-05-06 10:44 | 34.14745 | 24.19807 | 35148 ft | 483 kts | 126° |
| 2026-05-06 10:44 | 34.10871 | 24.26442 | 35144 ft | 483 kts | 126° |
| 2026-05-06 10:45 | 34.06993 | 24.33072 | 35145 ft | 483 kts | 127° |
| 2026-05-06 10:45 | 34.03138 | 24.39653 | 35144 ft | 484 kts | 126° |
| 2026-05-06 10:46 | 33.99084 | 24.46110 | 35135 ft | 482 kts | 136° |
| 2026-05-06 10:46 | 33.94140 | 24.51520 | 35135 ft | 480 kts | 141° |
| 2026-05-06 10:47 | 33.89111 | 24.56793 | 35150 ft | 480 kts | 141° |
| 2026-05-06 10:47 | 33.84097 | 24.62103 | 35146 ft | 480 kts | 141° |
| 2026-05-06 10:48 | 33.79102 | 24.67443 | 35145 ft | 480 kts | 140° |
| 2026-05-06 10:48 | 33.74111 | 24.72790 | 35147 ft | 481 kts | 140° |
| 2026-05-06 10:49 | 33.69121 | 24.78127 | 35144 ft | 481 kts | 140° |
| 2026-05-06 10:49 | 33.64122 | 24.83463 | 35146 ft | 481 kts | 141° |
| 2026-05-06 10:50 | 33.59120 | 24.88791 | 35146 ft | 481 kts | 141° |
| 2026-05-06 10:50 | 33.54118 | 24.94111 | 35151 ft | 480 kts | 141° |
| 2026-05-06 10:51 | 33.49121 | 24.99417 | 35149 ft | 480 kts | 141° |
| 2026-05-06 10:51 | 33.44115 | 25.04723 | 35141 ft | 480 kts | 141° |
| 2026-05-06 10:52 | 33.39107 | 25.10024 | 35150 ft | 480 kts | 141° |
| 2026-05-06 10:52 | 33.34096 | 25.15320 | 35147 ft | 481 kts | 141° |
| 2026-05-06 10:53 | 33.29084 | 25.20607 | 35148 ft | 481 kts | 141° |
| 2026-05-06 10:53 | 33.24064 | 25.25895 | 35150 ft | 481 kts | 141° |
| 2026-05-06 10:54 | 33.19073 | 25.31144 | 35150 ft | 481 kts | 141° |
| 2026-05-06 10:54 | 33.14043 | 25.36426 | 35146 ft | 482 kts | 141° |
| 2026-05-06 10:55 | 33.09007 | 25.41705 | 35156 ft | 482 kts | 141° |
| 2026-05-06 10:55 | 33.03971 | 25.46977 | 35153 ft | 482 kts | 141° |
| 2026-05-06 10:56 | 32.98922 | 25.52253 | 35145 ft | 482 kts | 141° |
| 2026-05-06 10:56 | 32.93873 | 25.57521 | 35151 ft | 482 kts | 141° |
| 2026-05-06 10:57 | 32.88822 | 25.62783 | 35152 ft | 482 kts | 141° |
| 2026-05-06 10:57 | 32.83772 | 25.68035 | 35147 ft | 483 kts | 141° |
| 2026-05-06 10:58 | 32.78714 | 25.73289 | 35155 ft | 483 kts | 141° |
| 2026-05-06 10:58 | 32.73650 | 25.78538 | 35152 ft | 483 kts | 141° |
| 2026-05-06 10:59 | 32.68583 | 25.83784 | 35144 ft | 483 kts | 141° |
| 2026-05-06 10:59 | 32.63514 | 25.89024 | 35155 ft | 483 kts | 141° |
| 2026-05-06 11:00 | 32.58446 | 25.94253 | 35152 ft | 483 kts | 141° |
| 2026-05-06 11:00 | 32.53367 | 25.99487 | 35150 ft | 484 kts | 141° |
| 2026-05-06 11:01 | 32.48281 | 26.04719 | 35155 ft | 484 kts | 141° |
| 2026-05-06 11:01 | 32.43221 | 26.09916 | 35152 ft | 485 kts | 141° |
| 2026-05-06 11:02 | 32.38119 | 26.15148 | 35142 ft | 485 kts | 142° |
| 2026-05-06 11:02 | 32.33019 | 26.20371 | 35151 ft | 485 kts | 142° |
| 2026-05-06 11:03 | 32.27908 | 26.25596 | 35159 ft | 486 kts | 142° |
| 2026-05-06 11:03 | 32.22791 | 26.30820 | 35153 ft | 486 kts | 142° |
| 2026-05-06 11:04 | 32.17669 | 26.36040 | 35159 ft | 486 kts | 142° |
| 2026-05-06 11:04 | 32.12543 | 26.41258 | 35156 ft | 487 kts | 142° |
| 2026-05-06 11:05 | 32.07412 | 26.46471 | 35149 ft | 487 kts | 142° |
| 2026-05-06 11:05 | 32.02284 | 26.51674 | 35146 ft | 487 kts | 142° |
| 2026-05-06 11:06 | 31.97150 | 26.56875 | 35155 ft | 487 kts | 142° |
| 2026-05-06 11:06 | 31.92011 | 26.62073 | 35151 ft | 487 kts | 142° |
| 2026-05-06 11:07 | 31.86903 | 26.67231 | 35153 ft | 487 kts | 142° |
| 2026-05-06 11:07 | 31.81757 | 26.72421 | 35155 ft | 487 kts | 142° |
| 2026-05-06 11:08 | 31.76579 | 26.77634 | 35152 ft | 487 kts | 142° |
| 2026-05-06 11:08 | 31.71457 | 26.82783 | 35145 ft | 487 kts | 143° |
| 2026-05-06 11:09 | 31.66308 | 26.87953 | 35151 ft | 488 kts | 143° |
| 2026-05-06 11:09 | 31.61146 | 26.93126 | 35151 ft | 488 kts | 143° |
| 2026-05-06 11:10 | 31.55977 | 26.98300 | 35151 ft | 489 kts | 143° |
| 2026-05-06 11:10 | 31.50801 | 27.03472 | 35150 ft | 489 kts | 143° |
| 2026-05-06 11:11 | 31.45625 | 27.08637 | 35149 ft | 489 kts | 143° |
| 2026-05-06 11:11 | 31.40443 | 27.13802 | 35139 ft | 489 kts | 143° |
| 2026-05-06 11:12 | 31.35247 | 27.18972 | 35165 ft | 490 kts | 143° |
| 2026-05-06 11:12 | 31.29761 | 27.23583 | 35153 ft | 482 kts | 159° |
| 2026-05-06 11:13 | 31.23685 | 27.26832 | 35155 ft | 480 kts | 161° |
| 2026-05-06 11:13 | 31.17587 | 27.30050 | 35153 ft | 481 kts | 160° |
| 2026-05-06 11:14 | 31.11503 | 27.33333 | 35131 ft | 482 kts | 160° |
| 2026-05-06 11:14 | 31.05427 | 27.36634 | 35139 ft | 482 kts | 160° |
| 2026-05-06 11:15 | 30.99334 | 27.39937 | 35139 ft | 483 kts | 160° |
| 2026-05-06 11:15 | 30.93265 | 27.43348 | 35135 ft | 488 kts | 154° |
| 2026-05-06 11:16 | 30.87782 | 27.48109 | 35142 ft | 494 kts | 144° |
| 2026-05-06 11:16 | 30.82462 | 27.53171 | 35114 ft | 494 kts | 144° |
| 2026-05-06 11:17 | 30.77114 | 27.58204 | 35134 ft | 495 kts | 145° |
| 2026-05-06 11:17 | 30.71735 | 27.63197 | 35122 ft | 495 kts | 146° |
| 2026-05-06 11:18 | 30.66376 | 27.68143 | 35137 ft | 495 kts | 146° |
| 2026-05-06 11:18 | 30.60977 | 27.73119 | 35126 ft | 495 kts | 146° |
| 2026-05-06 11:19 | 30.55583 | 27.78086 | 35119 ft | 495 kts | 146° |
| 2026-05-06 11:19 | 30.50185 | 27.83052 | 35109 ft | 495 kts | 146° |
| 2026-05-06 11:20 | 30.44792 | 27.88006 | 35121 ft | 494 kts | 146° |
| 2026-05-06 11:20 | 30.39402 | 27.92950 | 35125 ft | 494 kts | 146° |
| 2026-05-06 11:21 | 30.34021 | 27.97878 | 35116 ft | 493 kts | 146° |
| 2026-05-06 11:21 | 30.28646 | 28.02793 | 35119 ft | 493 kts | 146° |
| 2026-05-06 11:22 | 30.23267 | 28.07705 | 35119 ft | 493 kts | 146° |
| 2026-05-06 11:22 | 30.17884 | 28.12613 | 35121 ft | 493 kts | 146° |
| 2026-05-06 11:23 | 30.12497 | 28.17519 | 35121 ft | 493 kts | 146° |
| 2026-05-06 11:23 | 30.07103 | 28.22424 | 35116 ft | 494 kts | 146° |
| 2026-05-06 11:24 | 30.01709 | 28.27323 | 35109 ft | 494 kts | 146° |
| 2026-05-06 11:24 | 29.96303 | 28.32225 | 35108 ft | 494 kts | 146° |
| 2026-05-06 11:25 | 29.90895 | 28.37124 | 35111 ft | 494 kts | 146° |
| 2026-05-06 11:25 | 29.85642 | 28.42266 | 35103 ft | 499 kts | 136° |
| 2026-05-06 11:26 | 29.81339 | 28.48589 | 35103 ft | 502 kts | 129° |
| 2026-05-06 11:26 | 29.77160 | 28.55033 | 35105 ft | 503 kts | 130° |
| 2026-05-06 11:27 | 29.72913 | 28.61428 | 35105 ft | 503 kts | 130° |
| 2026-05-06 11:27 | 29.68660 | 28.67756 | 35096 ft | 503 kts | 130° |
| 2026-05-06 11:28 | 29.64376 | 28.74129 | 35103 ft | 504 kts | 130° |
| 2026-05-06 11:28 | 29.60090 | 28.80500 | 35103 ft | 504 kts | 130° |
| 2026-05-06 11:29 | 29.55805 | 28.86863 | 35104 ft | 504 kts | 130° |
| 2026-05-06 11:29 | 29.51512 | 28.93230 | 35104 ft | 504 kts | 130° |
| 2026-05-06 11:30 | 29.47216 | 28.99592 | 35095 ft | 504 kts | 131° |
| 2026-05-06 11:30 | 29.42907 | 29.05933 | 35100 ft | 503 kts | 133° |
| 2026-05-06 11:31 | 29.37801 | 29.11276 | 35113 ft | 494 kts | 148° |
| 2026-05-06 11:31 | 29.32250 | 29.15937 | 35098 ft | 495 kts | 148° |
| 2026-05-06 11:32 | 29.26719 | 29.20639 | 35094 ft | 496 kts | 147° |
| 2026-05-06 11:32 | 29.21204 | 29.25400 | 35098 ft | 497 kts | 147° |
| 2026-05-06 11:33 | 29.16622 | 29.29360 | 35075 ft | 497 kts | 147° |
| 2026-05-06 11:33 | 29.10192 | 29.34878 | 35092 ft | 497 kts | 148° |
| 2026-05-06 11:34 | 29.05515 | 29.38777 | 35100 ft | 497 kts | 149° |
| 2026-05-06 11:34 | 28.99907 | 29.43409 | 35093 ft | 498 kts | 149° |
| 2026-05-06 11:35 | 28.94297 | 29.48050 | 35090 ft | 498 kts | 148° |
| 2026-05-06 11:35 | 28.88694 | 29.52693 | 35099 ft | 498 kts | 148° |
| 2026-05-06 11:36 | 28.83084 | 29.57340 | 35080 ft | 498 kts | 148° |
| 2026-05-06 11:36 | 28.77475 | 29.61981 | 35097 ft | 498 kts | 149° |
| 2026-05-06 11:37 | 28.71863 | 29.66617 | 35105 ft | 498 kts | 149° |
| 2026-05-06 11:37 | 28.66285 | 29.71218 | 35101 ft | 498 kts | 149° |
| 2026-05-06 11:38 | 28.60629 | 29.75877 | 35104 ft | 498 kts | 149° |
| 2026-05-06 11:38 | 28.55016 | 29.80495 | 35103 ft | 498 kts | 149° |
| 2026-05-06 11:39 | 28.49436 | 29.85080 | 35105 ft | 498 kts | 149° |
| 2026-05-06 11:39 | 28.43821 | 29.89686 | 35100 ft | 498 kts | 149° |
| 2026-05-06 11:40 | 28.38206 | 29.94287 | 35112 ft | 497 kts | 149° |
| 2026-05-06 11:40 | 28.32596 | 29.98877 | 35116 ft | 498 kts | 149° |
| 2026-05-06 11:41 | 28.26976 | 30.03469 | 35116 ft | 498 kts | 149° |
| 2026-05-06 11:41 | 28.21353 | 30.08058 | 35096 ft | 498 kts | 149° |
| 2026-05-06 11:42 | 28.15732 | 30.12640 | 35115 ft | 497 kts | 149° |
| 2026-05-06 11:42 | 28.10110 | 30.17215 | 35117 ft | 497 kts | 149° |
| 2026-05-06 11:43 | 28.04493 | 30.21781 | 35115 ft | 498 kts | 149° |
| 2026-05-06 11:43 | 27.98866 | 30.26349 | 35115 ft | 498 kts | 149° |
| 2026-05-06 11:44 | 27.90421 | 30.33193 | 35120 ft | 498 kts | 149° |
| 2026-05-06 11:44 | 27.84790 | 30.37750 | 35112 ft | 497 kts | 149° |
| 2026-05-06 11:45 | 27.79160 | 30.42300 | 35114 ft | 497 kts | 149° |
| 2026-05-06 11:45 | 27.73532 | 30.46842 | 35122 ft | 497 kts | 149° |
| 2026-05-06 11:46 | 27.67897 | 30.51384 | 35118 ft | 498 kts | 149° |
| 2026-05-06 11:46 | 27.62261 | 30.55921 | 35123 ft | 498 kts | 149° |
| 2026-05-06 11:47 | 27.56622 | 30.60454 | 35104 ft | 498 kts | 149° |
| 2026-05-06 11:47 | 27.50981 | 30.64983 | 35122 ft | 498 kts | 149° |
| 2026-05-06 11:48 | 27.45379 | 30.69475 | 35127 ft | 498 kts | 149° |
| 2026-05-06 11:48 | 27.39705 | 30.74018 | 35123 ft | 498 kts | 149° |
| 2026-05-06 11:49 | 27.34062 | 30.78532 | 35125 ft | 498 kts | 149° |
| 2026-05-06 11:49 | 27.28454 | 30.83012 | 35125 ft | 498 kts | 150° |
| 2026-05-06 11:50 | 27.22809 | 30.87516 | 35109 ft | 498 kts | 150° |
| 2026-05-06 11:50 | 27.17165 | 30.92014 | 35127 ft | 497 kts | 150° |
| 2026-05-06 11:51 | 27.11518 | 30.96509 | 35126 ft | 497 kts | 150° |
| 2026-05-06 11:51 | 27.05878 | 31.00993 | 35129 ft | 497 kts | 150° |
| 2026-05-06 11:52 | 27.00705 | 31.06216 | 35126 ft | 507 kts | 133° |
| 2026-05-06 11:52 | 26.96284 | 31.12392 | 35126 ft | 508 kts | 132° |
| 2026-05-06 11:53 | 26.91897 | 31.18587 | 35125 ft | 508 kts | 132° |
| 2026-05-06 11:53 | 26.87466 | 31.24744 | 35098 ft | 507 kts | 133° |
| 2026-05-06 11:54 | 26.83011 | 31.30869 | 35088 ft | 507 kts | 133° |
| 2026-05-06 11:54 | 26.78548 | 31.36982 | 35071 ft | 507 kts | 133° |
| 2026-05-06 11:55 | 26.74114 | 31.43053 | 35061 ft | 507 kts | 133° |
| 2026-05-06 11:55 | 26.69650 | 31.49161 | 35063 ft | 507 kts | 133° |
| 2026-05-06 11:56 | 26.65189 | 31.55257 | 35036 ft | 507 kts | 133° |
| 2026-05-06 11:56 | 26.60722 | 31.61352 | 35021 ft | 507 kts | 133° |
| 2026-05-06 11:57 | 26.56256 | 31.67438 | 35027 ft | 506 kts | 133° |
| 2026-05-06 11:57 | 26.51788 | 31.73519 | 35026 ft | 506 kts | 133° |
| 2026-05-06 11:58 | 26.47321 | 31.79590 | 35006 ft | 506 kts | 133° |
| 2026-05-06 11:58 | 26.42856 | 31.85650 | 35010 ft | 505 kts | 134° |
| 2026-05-06 11:59 | 26.38390 | 31.91703 | 34981 ft | 505 kts | 134° |
| 2026-05-06 11:59 | 26.33928 | 31.97742 | 34983 ft | 505 kts | 134° |
| 2026-05-06 12:00 | 26.29461 | 32.03781 | 34986 ft | 505 kts | 134° |
| 2026-05-06 12:00 | 26.24990 | 32.09815 | 34987 ft | 505 kts | 134° |
| 2026-05-06 12:01 | 26.20520 | 32.15841 | 34988 ft | 505 kts | 134° |
| 2026-05-06 12:01 | 26.16043 | 32.21868 | 34985 ft | 505 kts | 134° |
| 2026-05-06 12:02 | 26.11559 | 32.27898 | 34951 ft | 506 kts | 134° |
| 2026-05-06 12:02 | 26.07075 | 32.33919 | 34976 ft | 505 kts | 134° |
| 2026-05-06 12:03 | 26.02594 | 32.39929 | 34984 ft | 505 kts | 134° |
| 2026-05-06 12:03 | 25.98105 | 32.45940 | 34977 ft | 505 kts | 134° |
| 2026-05-06 12:04 | 25.93611 | 32.51951 | 34981 ft | 506 kts | 134° |
| 2026-05-06 12:04 | 25.89113 | 32.57960 | 34985 ft | 506 kts | 134° |
| 2026-05-06 12:05 | 25.84644 | 32.63922 | 34993 ft | 505 kts | 134° |
| 2026-05-06 12:05 | 25.80150 | 32.69912 | 34989 ft | 505 kts | 134° |
| 2026-05-06 12:06 | 25.75651 | 32.75899 | 34995 ft | 505 kts | 134° |
| 2026-05-06 12:06 | 25.71509 | 32.82233 | 34973 ft | 509 kts | 127° |
| 2026-05-06 12:07 | 25.67679 | 32.88839 | 34968 ft | 509 kts | 127° |
| 2026-05-06 12:07 | 25.63840 | 32.95430 | 34970 ft | 508 kts | 127° |
| 2026-05-06 12:08 | 25.59957 | 33.01967 | 34968 ft | 503 kts | 128° |
| 2026-05-06 12:08 | 25.58055 | 33.05150 | 34962 ft | 488 kts | 128° |
| 2026-05-06 12:08 | 25.56208 | 33.08238 | 34949 ft | 474 kts | 128° |
| 2026-05-06 12:09 | 25.54414 | 33.11233 | 34891 ft | 462 kts | 128° |
| 2026-05-06 12:09 | 25.52645 | 33.14181 | 34650 ft | 456 kts | 128° |
| 2026-05-06 12:09 | 25.50891 | 33.17098 | 34231 ft | 455 kts | 128° |
| 2026-05-06 12:09 | 25.49115 | 33.20045 | 33267 ft | 467 kts | 128° |
| 2026-05-06 12:10 | 25.47281 | 33.23084 | 32061 ft | 483 kts | 127° |
| 2026-05-06 12:10 | 25.45390 | 33.26223 | 30897 ft | 498 kts | 126° |
| 2026-05-06 12:10 | 25.43448 | 33.29453 | 29811 ft | 509 kts | 126° |
| 2026-05-06 12:10 | 25.41477 | 33.32737 | 28887 ft | 513 kts | 126° |
| 2026-05-06 12:11 | 25.39516 | 33.36004 | 28405 ft | 506 kts | 126° |
| 2026-05-06 12:11 | 25.37612 | 33.39173 | 28001 ft | 497 kts | 126° |
| 2026-05-06 12:11 | 25.35707 | 33.42332 | 27536 ft | 491 kts | 126° |
| 2026-05-06 12:11 | 25.33875 | 33.45495 | 26986 ft | 488 kts | 119° |
| 2026-05-06 12:12 | 25.32727 | 33.49006 | 26425 ft | 486 kts | 101° |
| 2026-05-06 12:12 | 25.32488 | 33.52697 | 25982 ft | 480 kts | 85° |
| 2026-05-06 12:12 | 25.33075 | 33.56287 | 25534 ft | 472 kts | 72° |
| 2026-05-06 12:12 | 25.34008 | 33.59744 | 25075 ft | 467 kts | 71° |
| 2026-05-06 12:13 | 25.34944 | 33.63170 | 24563 ft | 464 kts | 72° |
| 2026-05-06 12:13 | 25.35858 | 33.66581 | 24080 ft | 461 kts | 72° |
| 2026-05-06 12:13 | 25.36743 | 33.69972 | 23622 ft | 457 kts | 73° |
| 2026-05-06 12:13 | 25.37604 | 33.73341 | 23078 ft | 454 kts | 74° |
| 2026-05-06 12:14 | 25.38450 | 33.76689 | 22544 ft | 450 kts | 74° |
| 2026-05-06 12:14 | 25.39286 | 33.80013 | 22010 ft | 447 kts | 74° |
| 2026-05-06 12:14 | 25.40114 | 33.83307 | 21506 ft | 444 kts | 74° |
| 2026-05-06 12:14 | 25.40940 | 33.86590 | 20998 ft | 441 kts | 74° |
| 2026-05-06 12:15 | 25.41759 | 33.89841 | 20500 ft | 438 kts | 74° |
| 2026-05-06 12:15 | 25.42571 | 33.93075 | 20006 ft | 435 kts | 74° |
| 2026-05-06 12:15 | 25.43372 | 33.96284 | 19530 ft | 432 kts | 75° |
| 2026-05-06 12:15 | 25.44167 | 33.99480 | 19071 ft | 429 kts | 75° |
| 2026-05-06 12:16 | 25.44956 | 34.02656 | 18640 ft | 426 kts | 75° |
| 2026-05-06 12:16 | 25.45739 | 34.05807 | 18190 ft | 423 kts | 75° |
| 2026-05-06 12:16 | 25.46463 | 34.08958 | 17678 ft | 421 kts | 81° |
| 2026-05-06 12:16 | 25.46676 | 34.12159 | 17162 ft | 417 kts | 94° |
| 2026-05-06 12:17 | 25.46194 | 34.15286 | 16732 ft | 410 kts | 110° |
| 2026-05-06 12:17 | 25.45072 | 34.18146 | 16297 ft | 403 kts | 121° |
| 2026-05-06 12:17 | 25.43692 | 34.20822 | 15851 ft | 399 kts | 123° |
| 2026-05-06 12:17 | 25.42289 | 34.23410 | 15384 ft | 396 kts | 124° |
| 2026-05-06 12:18 | 25.40861 | 34.26007 | 14944 ft | 394 kts | 124° |
| 2026-05-06 12:18 | 25.39442 | 34.28577 | 14624 ft | 388 kts | 124° |
| 2026-05-06 12:18 | 25.38059 | 34.31084 | 14533 ft | 376 kts | 124° |
| 2026-05-06 12:18 | 25.36722 | 34.33515 | 14430 ft | 364 kts | 124° |
| 2026-05-06 12:19 | 25.35428 | 34.35874 | 14353 ft | 353 kts | 124° |
| 2026-05-06 12:19 | 25.34182 | 34.38153 | 14283 ft | 339 kts | 124° |
| 2026-05-06 12:19 | 25.32986 | 34.40349 | 14058 ft | 328 kts | 124° |
| 2026-05-06 12:19 | 25.31828 | 34.42481 | 13770 ft | 320 kts | 124° |
| 2026-05-06 12:20 | 25.30695 | 34.44572 | 13431 ft | 314 kts | 124° |
| 2026-05-06 12:20 | 25.29581 | 34.46636 | 12982 ft | 312 kts | 124° |
| 2026-05-06 12:20 | 25.28473 | 34.48700 | 12617 ft | 312 kts | 124° |
| 2026-05-06 12:20 | 25.27375 | 34.50745 | 12452 ft | 307 kts | 124° |
| 2026-05-06 12:21 | 25.26291 | 34.52770 | 12203 ft | 306 kts | 124° |
| 2026-05-06 12:21 | 25.25209 | 34.54790 | 11941 ft | 305 kts | 124° |
| 2026-05-06 12:21 | 25.24132 | 34.56802 | 11684 ft | 303 kts | 124° |
| 2026-05-06 12:21 | 25.23060 | 34.58804 | 11376 ft | 302 kts | 124° |
| 2026-05-06 12:22 | 25.21991 | 34.60803 | 11073 ft | 302 kts | 124° |
| 2026-05-06 12:22 | 25.20927 | 34.62796 | 10789 ft | 300 kts | 124° |
| 2026-05-06 12:22 | 25.19872 | 34.64779 | 10530 ft | 299 kts | 124° |
| 2026-05-06 12:22 | 25.18828 | 34.66744 | 10282 ft | 296 kts | 124° |
| 2026-05-06 12:23 | 25.18136 | 34.68045 | 10091 ft | 296 kts | 124° |
| 2026-05-06 12:23 | 25.17094 | 34.70002 | 9814 ft | 295 kts | 124° |
| 2026-05-06 12:23 | 25.16057 | 34.71952 | 9508 ft | 294 kts | 124° |
| 2026-05-06 12:23 | 25.15152 | 34.73982 | 9143 ft | 298 kts | 109° |
| 2026-05-06 12:24 | 25.14884 | 34.76247 | 8910 ft | 297 kts | 88° |
| 2026-05-06 12:24 | 25.15327 | 34.78466 | 8659 ft | 298 kts | 66° |
| 2026-05-06 12:24 | 25.16417 | 34.80374 | 8406 ft | 293 kts | 45° |
| 2026-05-06 12:24 | 25.18007 | 34.81725 | 8164 ft | 285 kts | 24° |
| 2026-05-06 12:25 | 25.19819 | 34.82324 | 8043 ft | 260 kts | 0° |
| 2026-05-06 12:25 | 25.21514 | 34.82144 | 7928 ft | 234 kts | 335° |
| 2026-05-06 12:25 | 25.22926 | 34.81442 | 7762 ft | 216 kts | 328° |
| 2026-05-06 12:25 | 25.24250 | 34.80697 | 7488 ft | 211 kts | 329° |
| 2026-05-06 12:26 | 25.25542 | 34.79945 | 7259 ft | 210 kts | 327° |
| 2026-05-06 12:26 | 25.26823 | 34.79182 | 7021 ft | 209 kts | 324° |
| 2026-05-06 12:26 | 25.28049 | 34.78323 | 6733 ft | 208 kts | 323° |
| 2026-05-06 12:26 | 25.29259 | 34.77480 | 6397 ft | 204 kts | 323° |
| 2026-05-06 12:27 | 25.30442 | 34.76599 | 5983 ft | 202 kts | 320° |
| 2026-05-06 12:27 | 25.31573 | 34.75732 | 5807 ft | 194 kts | 321° |
| 2026-05-06 12:27 | 25.32648 | 34.74888 | 5843 ft | 189 kts | 319° |
| 2026-05-06 12:27 | 25.33737 | 34.74041 | 5875 ft | 195 kts | 320° |
| 2026-05-06 12:28 | 25.34858 | 34.73176 | 5826 ft | 200 kts | 320° |
| 2026-05-06 12:28 | 25.36062 | 34.72250 | 5257 ft | 214 kts | 320° |
| 2026-05-06 12:28 | 25.37279 | 34.71315 | 4699 ft | 210 kts | 320° |
| 2026-05-06 12:28 | 25.38204 | 34.70154 | 4150 ft | 198 kts | 297° |
| 2026-05-06 12:29 | 25.39087 | 34.69029 | 3604 ft | 197 kts | 330° |
| 2026-05-06 12:29 | 25.40289 | 34.68379 | 3164 ft | 187 kts | 326° |
| 2026-05-06 12:29 | 25.41333 | 34.67632 | 3012 ft | 172 kts | 328° |
| 2026-05-06 12:29 | 25.42358 | 34.66957 | 2661 ft | 169 kts | 331° |
| 2026-05-06 12:30 | 25.43340 | 34.66320 | 2452 ft | 159 kts | 332° |
| 2026-05-06 12:30 | 25.44285 | 34.65714 | 2307 ft | 157 kts | 332° |
| 2026-05-06 12:30 | 25.45217 | 34.65113 | 2201 ft | 153 kts | 333° |
| 2026-05-06 12:30 | 25.46124 | 34.64530 | 2055 ft | 151 kts | 332° |
| 2026-05-06 12:31 | 25.47011 | 34.63958 | 1854 ft | 146 kts | 334° |
| 2026-05-06 12:31 | 25.47872 | 34.63404 | 1691 ft | 143 kts | 333° |
| 2026-05-06 12:31 | 25.48727 | 34.62856 | 1522 ft | 141 kts | 334° |
| 2026-05-06 12:31 | 25.49570 | 34.62316 | 1327 ft | 142 kts | 334° |
| 2026-05-06 12:32 | 25.50429 | 34.61766 | 1145 ft | 146 kts | 333° |
| 2026-05-06 12:32 | 25.51315 | 34.61198 | 968 ft | 146 kts | 332° |
| 2026-05-06 12:32 | 25.52169 | 34.60634 | 808 ft | 139 kts | 332° |
| 2026-05-06 12:32 | 25.52996 | 34.60091 | 592 ft | 139 kts | 335° |
| 2026-05-06 12:33 | 25.53856 | 34.59552 | 457 ft | 145 kts | 335° |
| 2026-05-06 12:33 | 25.54732 | 34.59000 | 262 ft | 143 kts | 338° |
| 2026-05-06 12:33 | 25.55523 | 34.58505 | 256 ft | 108 kts | 329° |
| 2026-05-06 12:33 | 25.55852 | 34.58293 | 261 ft | 29 kts | 330° |
| 2026-05-06 12:34 | 25.56003 | 34.58201 | 260 ft | 16 kts | 334° |